createdAt,value
2022-11-24T00:08:00.776Z,6.90
2022-11-24T00:10:27.797Z,7.40
2022-11-24T00:12:55.960Z,8.00
2022-11-24T00:15:22.917Z,8.00
2022-11-24T00:17:49.966Z,5.90
2022-11-24T00:20:17.100Z,6.30
2022-11-24T00:22:46.491Z,6.20
2022-11-24T00:25:13.504Z,7.70
2022-11-24T00:27:40.824Z,9.50
2022-11-24T00:30:09.939Z,10.80
2022-11-24T00:32:36.992Z,11.10
2022-11-24T00:35:05.046Z,12.60
2022-11-24T00:37:32.277Z,14.60
2022-11-24T00:39:59.247Z,17.90
2022-11-24T00:42:26.238Z,24.00
2022-11-24T00:44:53.674Z,26.00
2022-11-24T00:47:20.675Z,18.40
2022-11-24T00:49:47.814Z,26.90
2022-11-24T00:52:14.752Z,24.30
2022-11-24T00:54:42.297Z,18.40
2022-11-24T00:57:09.827Z,13.60
2022-11-24T00:59:37.081Z,12.40
2022-11-24T01:02:04.235Z,10.80
2022-11-24T01:04:31.858Z,9.80
2022-11-24T01:06:59.354Z,8.30
2022-11-24T01:09:27.001Z,8.20
2022-11-24T01:12:02.907Z,6.90
2022-11-24T01:14:30.493Z,6.70
2022-11-24T01:17:00.839Z,8.20
2022-11-24T01:19:27.832Z,8.90
2022-11-24T01:21:55.332Z,10.30
2022-11-24T01:24:22.504Z,9.60
2022-11-24T01:26:49.693Z,8.70
2022-11-24T01:29:16.829Z,11.50
2022-11-24T01:31:43.832Z,11.10
2022-11-24T01:34:10.866Z,13.80
2022-11-24T01:36:38.065Z,15.20
2022-11-24T01:39:05.140Z,13.10
2022-11-24T01:41:35.894Z,13.50
2022-11-24T01:44:23.226Z,10.30
2022-11-24T01:46:57.782Z,12.30
2022-11-24T01:49:42.091Z,15.40
2022-11-24T01:52:12.832Z,10.80
2022-11-24T01:54:43.102Z,10.80
2022-11-24T01:57:30.756Z,11.10
2022-11-24T02:00:01.187Z,11.40
2022-11-24T02:02:28.763Z,8.90
2022-11-24T02:04:56.775Z,8.30
2022-11-24T02:07:23.902Z,8.30
2022-11-24T02:09:53.792Z,9.60
2022-11-24T02:12:22.500Z,10.30
2022-11-24T02:14:49.485Z,9.50
2022-11-24T02:17:16.531Z,8.40
2022-11-24T02:20:04.627Z,9.40
2022-11-24T02:22:34.817Z,7.00
2022-11-24T02:25:22.985Z,8.00
2022-11-24T02:27:53.844Z,7.50
2022-11-24T02:30:23.732Z,8.50
2022-11-24T02:32:50.715Z,10.40
2022-11-24T02:35:17.824Z,12.00
2022-11-24T02:37:44.866Z,14.50
2022-11-24T02:40:15.127Z,12.60
2022-11-24T02:42:43.617Z,13.00
2022-11-24T02:45:10.649Z,11.40
2022-11-24T02:47:37.751Z,11.60
2022-11-24T02:50:05.136Z,12.10
2022-11-24T02:52:32.629Z,11.50
2022-11-24T02:54:59.608Z,11.50
2022-11-24T02:57:26.688Z,9.80
2022-11-24T02:59:54.141Z,9.40
2022-11-24T03:02:21.278Z,8.90
2022-11-24T03:04:48.551Z,9.70
2022-11-24T03:07:15.609Z,10.10
2022-11-24T03:09:42.798Z,11.10
2022-11-24T03:12:10.371Z,10.80
2022-11-24T03:14:37.598Z,9.20
2022-11-24T03:17:05.297Z,10.80
2022-11-24T03:19:33.139Z,13.90
2022-11-24T03:22:00.204Z,15.30
2022-11-24T03:24:27.261Z,17.20
2022-11-24T03:26:54.394Z,18.10
2022-11-24T03:29:21.431Z,16.80
2022-11-24T03:31:50.301Z,14.80
2022-11-24T03:34:18.113Z,13.30
2022-11-24T03:36:45.657Z,13.10
2022-11-24T03:39:12.898Z,12.10
2022-11-24T03:41:40.153Z,13.10
2022-11-24T03:44:07.463Z,12.40
2022-11-24T03:46:35.603Z,11.30
2022-11-24T03:49:02.628Z,9.30
2022-11-24T03:51:29.833Z,9.70
2022-11-24T03:53:56.821Z,9.50
2022-11-24T03:56:24.129Z,9.70
2022-11-24T03:58:52.023Z,10.20
2022-11-24T04:01:20.264Z,10.00
2022-11-24T04:03:47.392Z,9.60
2022-11-24T04:06:14.907Z,8.20
2022-11-24T04:08:42.146Z,12.40
2022-11-24T04:11:30.880Z,12.50
2022-11-24T04:13:58.048Z,11.40
2022-11-24T04:16:26.952Z,14.00
2022-11-24T04:18:54.498Z,13.50
2022-11-24T04:21:21.532Z,14.10
2022-11-24T04:23:49.365Z,10.20
2022-11-24T04:26:16.652Z,11.40
2022-11-24T04:28:43.613Z,12.10
2022-11-24T04:31:11.260Z,11.80
2022-11-24T04:33:38.414Z,12.90
2022-11-24T04:36:05.809Z,13.40
2022-11-24T04:39:23.122Z,12.90
2022-11-24T04:41:21.832Z,10.20
2022-11-24T04:43:50.588Z,11.30
2022-11-24T04:46:17.800Z,11.10
2022-11-24T04:48:45.626Z,11.20
2022-11-24T04:51:13.622Z,12.10
2022-11-24T04:53:40.538Z,12.00
2022-11-24T04:56:08.104Z,12.80
2022-11-24T04:58:36.032Z,12.50
2022-11-24T05:01:06.961Z,9.90
2022-11-24T05:06:01.125Z,11.40
2022-11-24T05:08:28.220Z,11.80
2022-11-24T05:10:55.657Z,14.20
2022-11-24T05:13:22.640Z,18.60
2022-11-24T05:15:49.961Z,18.00
2022-11-24T05:18:18.105Z,13.50
2022-11-24T05:20:45.771Z,14.70
2022-11-24T05:23:12.932Z,14.50
2022-11-24T05:25:44.859Z,16.30
2022-11-24T05:28:14.310Z,19.10
2022-11-24T05:30:41.241Z,17.70
2022-11-24T05:33:11.623Z,16.80
2022-11-24T05:35:38.753Z,13.50
2022-11-24T05:38:05.770Z,14.70
2022-11-24T05:40:32.841Z,15.60
2022-11-24T05:43:01.436Z,23.30
2022-11-24T05:45:28.539Z,44.60
2022-11-24T05:47:55.524Z,33.10
2022-11-24T05:50:22.862Z,26.60
2022-11-24T05:52:50.187Z,19.20
2022-11-24T05:55:19.638Z,16.50
2022-11-24T05:57:46.894Z,18.90
2022-11-24T06:00:15.106Z,23.20
2022-11-24T06:02:42.435Z,26.50
2022-11-24T06:05:09.798Z,25.40
2022-11-24T06:07:37.208Z,25.20
2022-11-24T06:10:04.836Z,18.60
2022-11-24T06:12:32.048Z,20.10
2022-11-24T06:14:59.395Z,20.20
2022-11-24T06:17:26.997Z,21.70
2022-11-24T06:19:54.875Z,18.50
2022-11-24T06:22:22.317Z,17.40
2022-11-24T06:24:51.893Z,17.70
2022-11-24T06:27:19.540Z,14.50
2022-11-24T06:29:46.589Z,19.60
2022-11-24T06:32:13.628Z,18.80
2022-11-24T06:34:41.005Z,21.00
2022-11-24T06:37:08.340Z,20.70
2022-11-24T06:39:35.445Z,22.10
2022-11-24T06:42:03.516Z,21.90
2022-11-24T06:44:30.771Z,19.30
2022-11-24T06:46:58.103Z,18.00
2022-11-24T06:49:25.101Z,18.90
2022-11-24T06:51:54.613Z,21.80
2022-11-24T06:54:22.230Z,22.60
2022-11-24T06:56:49.419Z,22.10
2022-11-24T06:59:18.676Z,25.20
2022-11-24T07:01:45.855Z,19.40
2022-11-24T07:04:15.208Z,20.60
2022-11-24T07:06:42.888Z,21.00
2022-11-24T07:09:12.723Z,22.10
2022-11-24T07:11:40.252Z,24.10
2022-11-24T07:14:07.773Z,24.80
2022-11-24T07:16:34.947Z,24.70
2022-11-24T07:19:02.103Z,22.80
2022-11-24T07:21:30.750Z,20.30
2022-11-24T07:23:58.095Z,24.60
2022-11-24T07:26:28.146Z,28.00
2022-11-24T07:28:55.248Z,26.40
2022-11-24T07:31:25.226Z,28.60
2022-11-24T07:33:55.723Z,28.90
2022-11-24T07:36:23.353Z,31.10
2022-11-24T07:38:50.707Z,29.40
2022-11-24T07:41:19.581Z,22.70
2022-11-24T07:43:47.554Z,18.90
2022-11-24T07:46:15.650Z,20.20
2022-11-24T07:48:42.754Z,22.30
2022-11-24T07:51:09.926Z,22.30
2022-11-24T07:53:37.669Z,21.90
2022-11-24T07:56:05.572Z,21.80
2022-11-24T07:58:34.752Z,24.20
2022-11-24T08:01:17.652Z,18.30
2022-11-24T08:03:45.560Z,34.00
2022-11-24T08:06:24.988Z,30.10
2022-11-24T08:08:55.164Z,41.30
2022-11-24T08:11:22.452Z,43.40
2022-11-24T08:13:49.456Z,46.10
2022-11-24T08:16:17.912Z,36.70
2022-11-24T08:18:48.733Z,35.70
2022-11-24T08:23:42.988Z,43.80
2022-11-24T08:29:00.710Z,37.30
2022-11-24T08:31:38.288Z,36.80
2022-11-24T08:34:05.877Z,38.40
2022-11-24T08:36:33.843Z,37.10
2022-11-24T08:39:03.498Z,35.00
2022-11-24T08:41:31.140Z,37.50
2022-11-24T08:43:58.152Z,30.40
2022-11-24T08:46:25.295Z,22.90
2022-11-24T08:48:53.801Z,20.90
2022-11-24T08:51:32.553Z,19.70
2022-11-24T08:54:19.379Z,13.10
2022-11-24T08:56:47.091Z,10.10
2022-11-24T08:59:14.569Z,10.70
2022-11-24T09:01:42.282Z,7.30
2022-11-24T09:04:09.507Z,7.00
2022-11-24T09:06:36.972Z,6.90
2022-11-24T09:09:04.094Z,9.10
2022-11-24T09:11:31.340Z,9.60
2022-11-24T09:13:58.913Z,9.60
2022-11-24T09:16:27.695Z,10.70
2022-11-24T09:19:02.310Z,9.10
2022-11-24T09:21:29.731Z,9.10
2022-11-24T09:23:57.284Z,8.60
2022-11-24T09:26:26.223Z,6.90
2022-11-24T09:28:56.820Z,7.60
2022-11-24T09:31:25.853Z,8.20
2022-11-24T09:33:53.354Z,10.50
2022-11-24T09:36:20.693Z,9.50
2022-11-24T09:38:50.766Z,10.20
2022-11-24T09:41:17.907Z,10.00
2022-11-24T09:43:45.265Z,9.30
2022-11-24T09:46:17.772Z,9.30
2022-11-24T09:48:51.209Z,11.30
2022-11-24T09:51:18.466Z,9.80
2022-11-24T09:53:56.982Z,10.40
2022-11-24T09:56:25.414Z,11.50
2022-11-24T09:58:54.763Z,12.60
2022-11-24T10:01:28.975Z,12.90
2022-11-24T10:04:01.087Z,12.90
2022-11-24T10:06:46.034Z,12.50
2022-11-24T10:09:32.523Z,10.50
2022-11-24T10:12:18.491Z,10.60
2022-11-24T10:15:09.749Z,8.50
2022-11-24T10:18:05.031Z,7.30
2022-11-24T10:20:41.760Z,7.00
2022-11-24T10:23:27.720Z,8.20
2022-11-24T10:25:57.537Z,9.60
2022-11-24T10:28:28.320Z,9.70
2022-11-24T10:33:30.692Z,10.70
2022-11-24T10:36:03.047Z,11.80
2022-11-24T10:38:44.584Z,11.00
2022-11-24T10:41:38.880Z,10.60
2022-11-24T10:44:14.147Z,9.50
2022-11-24T10:46:41.227Z,10.10
2022-11-24T10:49:08.388Z,11.60
2022-11-24T10:51:47.973Z,14.00
2022-11-24T10:54:18.399Z,12.80
2022-11-24T10:56:46.445Z,14.20
2022-11-24T10:59:36.716Z,13.40
2022-11-24T11:02:26.690Z,12.40
2022-11-24T11:04:53.794Z,10.80
2022-11-24T11:07:25.479Z,10.80
2022-11-24T11:12:44.759Z,10.90
2022-11-24T11:15:31.397Z,10.50
2022-11-24T11:18:01.220Z,11.20
2022-11-24T11:20:33.639Z,12.20
2022-11-24T11:23:03.062Z,12.60
2022-11-24T11:25:34.192Z,13.60
2022-11-24T11:28:29.609Z,15.40
2022-11-24T11:31:22.013Z,13.80
2022-11-24T11:34:06.133Z,13.40
2022-11-24T11:36:36.733Z,11.20
2022-11-24T11:39:04.060Z,10.50
2022-11-24T11:41:34.334Z,11.10
2022-11-24T11:44:23.188Z,13.30
2022-11-24T11:46:50.555Z,13.40
2022-11-24T11:49:17.621Z,13.30
2022-11-24T11:51:59.380Z,13.60
2022-11-24T11:54:44.944Z,14.30
2022-11-24T11:57:19.056Z,15.60
2022-11-24T11:59:46.378Z,13.50
2022-11-24T12:02:28.179Z,12.90
2022-11-24T12:05:46.831Z,13.80
2022-11-24T12:08:22.882Z,13.40
2022-11-24T12:11:05.036Z,15.10
2022-11-24T12:13:40.175Z,14.30
2022-11-24T12:16:32.551Z,12.80
2022-11-24T12:19:31.923Z,13.50
2022-11-24T12:22:05.260Z,16.30
2022-11-24T12:24:45.313Z,15.90
2022-11-24T12:27:55.788Z,14.00
2022-11-24T12:30:22.787Z,15.30
2022-11-24T12:32:57.684Z,14.70
2022-11-24T12:35:40.199Z,15.90
2022-11-24T12:38:19.552Z,15.40
2022-11-24T12:41:39.904Z,15.60
2022-11-24T12:43:55.489Z,18.60
2022-11-24T12:46:41.472Z,14.10
2022-11-24T12:49:12.106Z,13.00
2022-11-24T12:56:54.180Z,13.80
2022-11-24T12:59:41.534Z,14.50
2022-11-24T13:02:24.008Z,14.30
2022-11-24T13:05:23.582Z,16.90
2022-11-24T13:07:58.577Z,14.70
2022-11-24T13:10:57.219Z,16.40
2022-11-24T13:13:28.058Z,18.60
2022-11-24T13:19:07.855Z,21.80
2022-11-24T13:21:52.903Z,20.90
2022-11-24T13:24:24.260Z,19.50
2022-11-24T13:27:26.736Z,19.70
2022-11-24T13:29:53.874Z,17.80
2022-11-24T13:32:23.753Z,17.40
2022-11-24T13:34:55.116Z,17.80
2022-11-24T13:37:26.684Z,20.40
2022-11-24T13:40:11.666Z,23.90
2022-11-24T13:43:02.923Z,23.20
2022-11-24T13:45:38.911Z,22.10
2022-11-24T13:48:28.820Z,19.20
2022-11-24T13:50:58.630Z,21.70
2022-11-24T13:53:42.596Z,18.30
2022-11-24T13:56:12.560Z,18.70
2022-11-24T13:58:49.565Z,22.00
2022-11-24T14:01:19.842Z,21.90
2022-11-24T14:04:35.230Z,24.20
2022-11-24T14:09:54.414Z,22.00
2022-11-24T14:12:26.158Z,21.60
2022-11-24T14:14:55.793Z,19.60
2022-11-24T14:17:27.750Z,20.90
2022-11-24T14:19:56.251Z,20.90
2022-11-24T14:22:35.188Z,22.10
2022-11-24T14:25:02.828Z,22.20
2022-11-24T14:27:37.551Z,22.70
2022-11-24T14:30:10.470Z,25.30
2022-11-24T14:32:40.011Z,22.50
2022-11-24T14:35:25.785Z,20.90
2022-11-24T14:37:52.998Z,23.50
2022-11-24T14:40:51.575Z,25.30
2022-11-24T14:43:22.860Z,27.00
2022-11-24T14:46:00.198Z,23.60
2022-11-24T14:48:28.987Z,25.60
2022-11-24T14:51:10.829Z,25.80
2022-11-24T14:53:45.258Z,25.30
2022-11-24T14:56:24.939Z,19.20
2022-11-24T14:58:52.225Z,22.00
2022-11-24T15:01:28.349Z,24.00
2022-11-24T15:04:26.498Z,25.20
2022-11-24T15:07:18.911Z,25.40
2022-11-24T15:09:53.874Z,23.70
2022-11-24T15:12:24.231Z,24.90
2022-11-24T15:14:52.896Z,23.20
2022-11-24T15:17:21.138Z,24.10
2022-11-24T15:19:50.120Z,23.20
2022-11-24T15:22:47.293Z,23.80
2022-11-24T15:25:32.501Z,26.40
2022-11-24T15:28:00.486Z,24.80
2022-11-24T15:30:27.709Z,24.10
2022-11-24T15:32:56.388Z,26.90
2022-11-24T15:35:25.214Z,24.20
2022-11-24T15:37:52.358Z,20.10
2022-11-24T15:40:19.419Z,23.70
2022-11-24T15:42:53.443Z,24.20
2022-11-24T15:45:21.186Z,22.80
2022-11-24T15:47:51.104Z,23.70
2022-11-24T15:50:18.258Z,24.20
2022-11-24T15:52:46.129Z,26.70
2022-11-24T15:55:21.648Z,23.60
2022-11-24T15:57:49.037Z,19.30
2022-11-24T16:00:21.498Z,18.30
2022-11-24T16:02:50.320Z,18.20
2022-11-24T16:05:17.942Z,19.50
2022-11-24T16:07:45.168Z,20.40
2022-11-24T16:10:18.506Z,22.40
2022-11-24T16:12:46.277Z,21.60
2022-11-24T16:15:13.249Z,23.70
2022-11-24T16:17:40.197Z,17.20
2022-11-24T16:20:07.810Z,20.30
2022-11-24T16:22:34.857Z,21.30
2022-11-24T16:25:03.924Z,23.30
2022-11-24T16:27:31.459Z,33.20
2022-11-24T16:29:58.637Z,26.10
2022-11-24T16:32:28.735Z,24.60
2022-11-24T16:34:55.796Z,23.80
2022-11-24T16:37:22.821Z,20.00
2022-11-24T16:39:50.450Z,33.90
2022-11-24T16:42:18.830Z,27.20
2022-11-24T16:44:45.839Z,22.10
2022-11-24T16:47:13.142Z,25.60
2022-11-24T16:49:40.558Z,27.30
2022-11-24T16:52:08.724Z,24.90
2022-11-24T16:54:35.907Z,26.60
2022-11-24T16:57:03.622Z,22.40
2022-11-24T16:59:30.695Z,23.00
2022-11-24T17:01:57.707Z,22.60
2022-11-24T17:04:24.866Z,23.80
2022-11-24T17:06:52.082Z,28.90
2022-11-24T17:09:40.805Z,32.00
2022-11-24T17:12:08.138Z,38.60
2022-11-24T17:14:37.098Z,23.40
2022-11-24T17:17:04.658Z,16.20
2022-11-24T17:19:31.982Z,18.40
2022-11-24T17:21:59.155Z,16.70
2022-11-24T17:24:26.159Z,17.80
2022-11-24T17:26:53.368Z,16.70
2022-11-24T17:29:20.541Z,19.00
2022-11-24T17:31:47.822Z,19.70
2022-11-24T17:34:14.792Z,18.20
2022-11-24T17:36:44.753Z,17.70
2022-11-24T17:39:12.003Z,19.10
2022-11-24T17:41:39.509Z,20.20
2022-11-24T17:44:08.739Z,22.20
2022-11-24T17:49:06.826Z,17.10
2022-11-24T17:51:33.795Z,20.20
2022-11-24T17:54:06.014Z,23.20
2022-11-24T17:56:48.473Z,17.00
2022-11-24T17:59:15.576Z,21.60
2022-11-24T18:01:45.714Z,22.90
2022-11-24T18:04:13.325Z,26.90
2022-11-24T18:06:40.505Z,21.10
2022-11-24T18:09:10.809Z,23.20
2022-11-24T18:11:37.914Z,23.00
2022-11-24T18:14:04.900Z,21.10
2022-11-24T18:16:34.423Z,17.50
2022-11-24T18:19:11.463Z,16.20
2022-11-24T18:21:43.899Z,17.40
2022-11-24T18:24:11.413Z,18.40
2022-11-24T18:26:39.470Z,18.60
2022-11-24T18:29:09.586Z,19.50
2022-11-24T18:31:36.847Z,17.50
2022-11-24T18:34:05.382Z,18.00
2022-11-24T18:36:34.714Z,15.60
2022-11-24T18:39:03.108Z,13.70
2022-11-24T18:41:30.557Z,15.10
2022-11-24T18:43:57.462Z,15.40
2022-11-24T18:46:24.663Z,16.00
2022-11-24T18:48:53.257Z,16.40
2022-11-24T18:51:22.797Z,16.40
2022-11-24T18:53:53.523Z,16.00
2022-11-24T18:56:20.711Z,14.90
2022-11-24T18:58:47.809Z,16.80
2022-11-24T19:01:18.420Z,15.90
2022-11-24T19:03:50.481Z,18.30
2022-11-24T19:06:19.307Z,18.40
2022-11-24T19:08:48.030Z,17.00
2022-11-24T19:11:21.373Z,18.00
2022-11-24T19:13:49.213Z,18.40
2022-11-24T19:16:16.632Z,13.20
2022-11-24T19:18:46.410Z,13.90
2022-11-24T19:21:17.628Z,13.90
2022-11-24T19:23:44.567Z,14.40
2022-11-24T19:26:12.162Z,14.30
2022-11-24T19:28:39.338Z,15.20
2022-11-24T19:31:07.959Z,13.60
2022-11-24T19:33:37.289Z,14.80
2022-11-24T19:36:06.049Z,11.80
2022-11-24T19:38:33.693Z,12.00
2022-11-24T19:41:11.565Z,13.40
2022-11-24T19:43:39.539Z,13.20
2022-11-24T19:46:10.713Z,15.40
2022-11-24T19:48:46.183Z,16.50
2022-11-24T19:51:14.910Z,14.50
2022-11-24T19:53:42.414Z,14.80
2022-11-24T19:56:14.120Z,12.30
2022-11-24T19:58:41.601Z,12.60
2022-11-24T20:01:13.047Z,13.30
2022-11-24T20:03:42.813Z,15.90
2022-11-24T20:06:10.773Z,20.90
2022-11-24T20:08:38.177Z,19.80
2022-11-24T20:11:06.268Z,17.50
2022-11-24T20:13:37.279Z,15.40
2022-11-24T20:16:05.957Z,12.70
2022-11-24T20:18:37.550Z,11.60
2022-11-24T20:21:08.196Z,14.30
2022-11-24T20:23:35.501Z,14.50
2022-11-24T20:26:13.431Z,13.10
2022-11-24T20:28:40.657Z,13.50
2022-11-24T20:31:13.394Z,15.10
2022-11-24T20:33:40.843Z,17.90
2022-11-24T20:36:12.226Z,12.40
2022-11-24T20:38:40.316Z,12.10
2022-11-24T20:41:09.722Z,14.30
2022-11-24T20:43:37.927Z,14.20
2022-11-24T20:46:10.562Z,12.60
2022-11-24T20:48:38.492Z,12.90
2022-11-24T20:51:09.876Z,12.90
2022-11-24T20:53:37.094Z,11.90
2022-11-24T20:56:07.495Z,9.90
2022-11-24T20:58:35.285Z,10.60
2022-11-24T21:01:06.472Z,11.50
2022-11-24T21:03:37.219Z,12.50
2022-11-24T21:06:09.825Z,11.50
2022-11-24T21:08:37.288Z,11.40
2022-11-24T21:11:05.221Z,12.70
2022-11-24T21:13:33.785Z,14.60
2022-11-24T21:16:01.317Z,12.20
2022-11-24T21:18:28.424Z,12.70
2022-11-24T21:20:55.821Z,13.20
2022-11-24T21:23:22.741Z,11.20
2022-11-24T21:25:52.639Z,12.10
2022-11-24T21:28:19.586Z,12.10
2022-11-24T21:30:46.632Z,12.30
2022-11-24T21:33:16.957Z,12.10
2022-11-24T21:35:44.015Z,10.50
2022-11-24T21:38:11.121Z,11.00
2022-11-24T21:40:38.219Z,12.00
2022-11-24T21:43:05.450Z,12.00
2022-11-24T21:45:34.475Z,12.50
2022-11-24T21:48:01.476Z,13.00
2022-11-24T21:50:28.591Z,13.30
2022-11-24T21:53:00.670Z,14.40
2022-11-24T21:55:30.616Z,12.80
2022-11-24T21:57:57.618Z,11.90
2022-11-24T22:00:24.807Z,12.80
2022-11-24T22:02:51.868Z,12.90
2022-11-24T22:05:21.973Z,13.30
2022-11-24T22:07:50.430Z,12.20
2022-11-24T22:10:19.243Z,14.50
2022-11-24T22:12:46.185Z,13.60
2022-11-24T22:15:13.170Z,11.50
2022-11-24T22:17:40.777Z,11.70
2022-11-24T22:20:08.629Z,13.80
2022-11-24T22:22:36.076Z,14.80
2022-11-24T22:25:03.072Z,17.80
2022-11-24T22:27:30.160Z,15.70
2022-11-24T22:29:57.263Z,15.20
2022-11-24T22:32:25.061Z,17.10
2022-11-24T22:34:52.277Z,15.00
2022-11-24T22:37:19.339Z,16.30
2022-11-24T22:39:46.485Z,16.20
2022-11-24T22:42:13.525Z,19.10
2022-11-24T22:44:43.719Z,20.20
2022-11-24T22:47:10.725Z,20.80
2022-11-24T22:49:37.923Z,19.50
2022-11-24T22:52:04.816Z,21.30
2022-11-24T22:54:32.853Z,17.60
2022-11-24T22:56:59.949Z,16.50
2022-11-24T22:59:26.886Z,18.60
2022-11-24T23:01:53.994Z,18.60
2022-11-24T23:04:21.022Z,18.00
2022-11-24T23:06:48.019Z,19.10
2022-11-24T23:09:17.815Z,18.90
2022-11-24T23:11:46.941Z,20.40
2022-11-24T23:14:15.188Z,16.90
2022-11-24T23:16:42.569Z,16.50
2022-11-24T23:19:09.556Z,18.10
2022-11-24T23:21:40.763Z,20.40
2022-11-24T23:24:08.588Z,19.80
2022-11-24T23:26:39.436Z,19.50
2022-11-24T23:29:06.839Z,19.90
2022-11-24T23:31:35.833Z,21.20
2022-11-24T23:34:03.656Z,17.50
2022-11-24T23:36:31.285Z,17.90
2022-11-24T23:39:04.213Z,16.90
2022-11-24T23:41:32.699Z,18.60
2022-11-24T23:44:00.336Z,19.80
2022-11-24T23:46:31.952Z,18.90
2022-11-24T23:49:00.078Z,19.80
2022-11-24T23:51:28.671Z,19.70
2022-11-24T23:53:55.897Z,16.20
2022-11-24T23:56:24.572Z,17.70
2022-11-24T23:58:51.775Z,18.00
